sensor_id;sensor_type;location;lat;lon;timestamp;P1;durP1;ratioP1;P2;durP2;ratioP2
24897;SDS011;12957;49.434;8.684;2023-03-13T00:01:51;19.23;;;3.20;;
24897;SDS011;12957;49.434;8.684;2023-03-13T00:04:16;17.55;;;4.53;;
24897;SDS011;12957;49.434;8.684;2023-03-13T00:06:42;16.48;;;4.10;;
24897;SDS011;12957;49.434;8.684;2023-03-13T00:09:09;8.73;;;3.10;;
24897;SDS011;12957;49.434;8.684;2023-03-13T00:11:35;12.18;;;3.38;;
24897;SDS011;12957;49.434;8.684;2023-03-13T00:14:01;13.68;;;2.63;;
24897;SDS011;12957;49.434;8.684;2023-03-13T00:16:27;18.17;;;3.40;;
24897;SDS011;12957;49.434;8.684;2023-03-13T00:18:54;18.50;;;3.28;;
24897;SDS011;12957;49.434;8.684;2023-03-13T00:21:20;15.35;;;3.45;;
24897;SDS011;12957;49.434;8.684;2023-03-13T00:23:47;9.85;;;2.50;;
24897;SDS011;12957;49.434;8.684;2023-03-13T00:26:14;17.48;;;3.33;;
24897;SDS011;12957;49.434;8.684;2023-03-13T00:28:44;12.40;;;3.13;;
24897;SDS011;12957;49.434;8.684;2023-03-13T00:31:15;11.25;;;2.95;;
24897;SDS011;12957;49.434;8.684;2023-03-13T00:33:44;13.57;;;2.78;;
24897;SDS011;12957;49.434;8.684;2023-03-13T00:36:12;11.15;;;3.00;;
24897;SDS011;12957;49.434;8.684;2023-03-13T00:38:39;11.70;;;3.35;;
24897;SDS011;12957;49.434;8.684;2023-03-13T00:41:09;10.45;;;2.78;;
24897;SDS011;12957;49.434;8.684;2023-03-13T00:43:39;12.02;;;2.85;;
24897;SDS011;12957;49.434;8.684;2023-03-13T00:46:06;13.00;;;3.00;;
24897;SDS011;12957;49.434;8.684;2023-03-13T00:48:31;12.88;;;3.15;;
24897;SDS011;12957;49.434;8.684;2023-03-13T00:50:57;11.25;;;2.83;;
24897;SDS011;12957;49.434;8.684;2023-03-13T00:53:23;8.38;;;2.53;;
24897;SDS011;12957;49.434;8.684;2023-03-13T00:58:17;11.52;;;2.50;;
24897;SDS011;12957;49.434;8.684;2023-03-13T01:00:43;9.30;;;2.67;;
24897;SDS011;12957;49.434;8.684;2023-03-13T01:03:08;10.05;;;2.75;;
24897;SDS011;12957;49.434;8.684;2023-03-13T01:05:33;10.07;;;2.42;;
24897;SDS011;12957;49.434;8.684;2023-03-13T01:07:59;11.80;;;2.70;;
24897;SDS011;12957;49.434;8.684;2023-03-13T01:10:24;12.25;;;2.90;;
24897;SDS011;12957;49.434;8.684;2023-03-13T01:12:50;13.85;;;3.17;;
24897;SDS011;12957;49.434;8.684;2023-03-13T01:15:15;10.07;;;2.67;;
24897;SDS011;12957;49.434;8.684;2023-03-13T01:17:43;16.88;;;2.80;;
24897;SDS011;12957;49.434;8.684;2023-03-13T01:20:09;12.13;;;2.53;;
24897;SDS011;12957;49.434;8.684;2023-03-13T01:22:35;8.30;;;2.50;;
24897;SDS011;12957;49.434;8.684;2023-03-13T01:25:01;10.38;;;2.88;;
24897;SDS011;12957;49.434;8.684;2023-03-13T01:27:27;10.40;;;3.20;;
24897;SDS011;12957;49.434;8.684;2023-03-13T01:29:53;12.77;;;3.00;;
24897;SDS011;12957;49.434;8.684;2023-03-13T01:32:18;10.32;;;2.63;;
24897;SDS011;12957;49.434;8.684;2023-03-13T01:34:44;10.20;;;2.83;;
24897;SDS011;12957;49.434;8.684;2023-03-13T01:37:09;14.10;;;2.65;;
24897;SDS011;12957;49.434;8.684;2023-03-13T01:39:35;8.05;;;2.55;;
24897;SDS011;12957;49.434;8.684;2023-03-13T01:42:02;13.10;;;2.60;;
24897;SDS011;12957;49.434;8.684;2023-03-13T01:44:28;6.55;;;2.30;;
24897;SDS011;12957;49.434;8.684;2023-03-13T01:46:53;13.90;;;2.40;;
24897;SDS011;12957;49.434;8.684;2023-03-13T01:49:22;17.80;;;3.25;;
24897;SDS011;12957;49.434;8.684;2023-03-13T01:51:59;8.82;;;2.20;;
24897;SDS011;12957;49.434;8.684;2023-03-13T01:54:27;13.55;;;2.72;;
24897;SDS011;12957;49.434;8.684;2023-03-13T01:59:52;11.52;;;3.03;;
24897;SDS011;12957;49.434;8.684;2023-03-13T02:02:41;17.25;;;2.80;;
24897;SDS011;12957;49.434;8.684;2023-03-13T02:05:09;12.23;;;3.08;;
24897;SDS011;12957;49.434;8.684;2023-03-13T02:07:36;14.25;;;2.70;;
24897;SDS011;12957;49.434;8.684;2023-03-13T02:10:04;8.55;;;2.33;;
24897;SDS011;12957;49.434;8.684;2023-03-13T02:12:34;14.90;;;2.53;;
24897;SDS011;12957;49.434;8.684;2023-03-13T02:15:03;11.88;;;2.30;;
24897;SDS011;12957;49.434;8.684;2023-03-13T02:17:30;12.75;;;2.65;;
24897;SDS011;12957;49.434;8.684;2023-03-13T02:19:58;11.27;;;2.53;;
24897;SDS011;12957;49.434;8.684;2023-03-13T02:24:55;10.77;;;2.22;;
24897;SDS011;12957;49.434;8.684;2023-03-13T02:27:22;13.18;;;2.42;;
24897;SDS011;12957;49.434;8.684;2023-03-13T02:29:48;16.95;;;2.70;;
24897;SDS011;12957;49.434;8.684;2023-03-13T02:32:14;7.28;;;2.30;;
24897;SDS011;12957;49.434;8.684;2023-03-13T02:34:39;7.82;;;2.13;;
24897;SDS011;12957;49.434;8.684;2023-03-13T02:37:06;10.18;;;2.17;;
24897;SDS011;12957;49.434;8.684;2023-03-13T02:39:35;12.95;;;2.17;;
24897;SDS011;12957;49.434;8.684;2023-03-13T02:42:01;14.30;;;2.60;;
24897;SDS011;12957;49.434;8.684;2023-03-13T02:44:27;13.07;;;2.78;;
24897;SDS011;12957;49.434;8.684;2023-03-13T02:46:53;7.28;;;2.33;;
24897;SDS011;12957;49.434;8.684;2023-03-13T02:49:19;6.45;;;2.15;;
24897;SDS011;12957;49.434;8.684;2023-03-13T02:51:48;9.32;;;2.15;;
24897;SDS011;12957;49.434;8.684;2023-03-13T02:54:33;6.75;;;1.73;;
24897;SDS011;12957;49.434;8.684;2023-03-13T02:57:01;13.85;;;2.30;;
24897;SDS011;12957;49.434;8.684;2023-03-13T02:59:27;8.30;;;2.35;;
24897;SDS011;12957;49.434;8.684;2023-03-13T03:01:53;9.25;;;1.95;;
24897;SDS011;12957;49.434;8.684;2023-03-13T03:04:19;7.35;;;1.77;;
24897;SDS011;12957;49.434;8.684;2023-03-13T03:06:49;8.45;;;2.30;;
24897;SDS011;12957;49.434;8.684;2023-03-13T03:09:16;5.00;;;2.00;;
24897;SDS011;12957;49.434;8.684;2023-03-13T03:11:42;7.85;;;1.80;;
24897;SDS011;12957;49.434;8.684;2023-03-13T03:14:08;8.27;;;2.10;;
24897;SDS011;12957;49.434;8.684;2023-03-13T03:16:34;9.60;;;1.90;;
24897;SDS011;12957;49.434;8.684;2023-03-13T03:18:59;6.13;;;1.90;;
24897;SDS011;12957;49.434;8.684;2023-03-13T03:21:25;5.40;;;1.60;;
24897;SDS011;12957;49.434;8.684;2023-03-13T03:23:50;7.25;;;2.10;;
24897;SDS011;12957;49.434;8.684;2023-03-13T03:26:16;5.32;;;2.03;;
24897;SDS011;12957;49.434;8.684;2023-03-13T03:28:41;9.27;;;1.90;;
24897;SDS011;12957;49.434;8.684;2023-03-13T03:31:08;13.68;;;1.83;;
24897;SDS011;12957;49.434;8.684;2023-03-13T03:33:35;7.30;;;1.98;;
24897;SDS011;12957;49.434;8.684;2023-03-13T03:36:02;8.15;;;1.95;;
24897;SDS011;12957;49.434;8.684;2023-03-13T03:38:28;7.50;;;2.00;;
24897;SDS011;12957;49.434;8.684;2023-03-13T03:40:53;7.53;;;1.67;;
24897;SDS011;12957;49.434;8.684;2023-03-13T03:43:19;8.07;;;1.90;;
24897;SDS011;12957;49.434;8.684;2023-03-13T03:45:44;8.88;;;1.95;;
24897;SDS011;12957;49.434;8.684;2023-03-13T03:48:10;6.55;;;1.67;;
24897;SDS011;12957;49.434;8.684;2023-03-13T03:50:35;5.75;;;1.70;;
24897;SDS011;12957;49.434;8.684;2023-03-13T03:53:01;6.28;;;1.40;;
24897;SDS011;12957;49.434;8.684;2023-03-13T03:55:26;4.45;;;1.60;;
24897;SDS011;12957;49.434;8.684;2023-03-13T03:57:52;5.32;;;1.40;;
24897;SDS011;12957;49.434;8.684;2023-03-13T04:00:17;5.32;;;1.40;;
24897;SDS011;12957;49.434;8.684;2023-03-13T04:02:43;9.02;;;1.40;;
24897;SDS011;12957;49.434;8.684;2023-03-13T04:05:09;6.30;;;1.50;;
24897;SDS011;12957;49.434;8.684;2023-03-13T04:07:34;10.68;;;1.55;;
24897;SDS011;12957;49.434;8.684;2023-03-13T04:10:00;6.75;;;1.33;;
24897;SDS011;12957;49.434;8.684;2023-03-13T04:12:26;4.68;;;1.27;;
24897;SDS011;12957;49.434;8.684;2023-03-13T04:14:51;6.13;;;1.35;;
24897;SDS011;12957;49.434;8.684;2023-03-13T04:17:17;5.70;;;1.30;;
24897;SDS011;12957;49.434;8.684;2023-03-13T04:19:42;7.47;;;1.50;;
24897;SDS011;12957;49.434;8.684;2023-03-13T04:22:08;4.75;;;1.63;;
24897;SDS011;12957;49.434;8.684;2023-03-13T04:24:33;6.75;;;2.35;;
24897;SDS011;12957;49.434;8.684;2023-03-13T04:26:59;3.35;;;1.30;;
24897;SDS011;12957;49.434;8.684;2023-03-13T04:29:25;10.13;;;1.60;;
24897;SDS011;12957;49.434;8.684;2023-03-13T04:31:51;5.03;;;1.40;;
24897;SDS011;12957;49.434;8.684;2023-03-13T04:34:16;4.97;;;1.40;;
24897;SDS011;12957;49.434;8.684;2023-03-13T04:36:42;8.43;;;1.42;;
24897;SDS011;12957;49.434;8.684;2023-03-13T04:39:07;6.28;;;1.98;;
24897;SDS011;12957;49.434;8.684;2023-03-13T04:41:33;3.95;;;1.20;;
24897;SDS011;12957;49.434;8.684;2023-03-13T04:43:58;3.80;;;1.45;;
24897;SDS011;12957;49.434;8.684;2023-03-13T04:46:24;4.55;;;1.30;;
24897;SDS011;12957;49.434;8.684;2023-03-13T04:48:49;4.63;;;1.55;;
24897;SDS011;12957;49.434;8.684;2023-03-13T04:51:15;2.90;;;1.23;;
24897;SDS011;12957;49.434;8.684;2023-03-13T04:53:40;3.72;;;1.13;;
24897;SDS011;12957;49.434;8.684;2023-03-13T04:56:05;4.32;;;1.50;;
24897;SDS011;12957;49.434;8.684;2023-03-13T04:58:31;1.50;;;1.25;;
24897;SDS011;12957;49.434;8.684;2023-03-13T05:00:56;4.03;;;1.30;;
24897;SDS011;12957;49.434;8.684;2023-03-13T05:03:22;7.43;;;1.25;;
24897;SDS011;12957;49.434;8.684;2023-03-13T05:05:48;6.35;;;1.50;;
24897;SDS011;12957;49.434;8.684;2023-03-13T05:08:13;5.35;;;1.38;;
24897;SDS011;12957;49.434;8.684;2023-03-13T05:10:42;4.60;;;1.40;;
24897;SDS011;12957;49.434;8.684;2023-03-13T05:13:07;2.13;;;1.27;;
24897;SDS011;12957;49.434;8.684;2023-03-13T05:15:33;2.33;;;1.23;;
24897;SDS011;12957;49.434;8.684;2023-03-13T05:17:58;3.15;;;1.15;;
24897;SDS011;12957;49.434;8.684;2023-03-13T05:20:24;2.58;;;1.38;;
24897;SDS011;12957;49.434;8.684;2023-03-13T05:22:49;3.17;;;1.30;;
24897;SDS011;12957;49.434;8.684;2023-03-13T05:25:15;3.08;;;1.23;;
24897;SDS011;12957;49.434;8.684;2023-03-13T05:27:40;3.38;;;1.50;;
24897;SDS011;12957;49.434;8.684;2023-03-13T05:30:06;4.88;;;1.55;;
24897;SDS011;12957;49.434;8.684;2023-03-13T05:32:32;3.50;;;1.30;;
24897;SDS011;12957;49.434;8.684;2023-03-13T05:34:57;4.88;;;1.33;;
24897;SDS011;12957;49.434;8.684;2023-03-13T05:37:23;3.00;;;1.50;;
24897;SDS011;12957;49.434;8.684;2023-03-13T05:39:48;2.90;;;1.15;;
24897;SDS011;12957;49.434;8.684;2023-03-13T05:42:14;2.65;;;1.30;;
24897;SDS011;12957;49.434;8.684;2023-03-13T05:44:39;3.55;;;1.80;;
24897;SDS011;12957;49.434;8.684;2023-03-13T05:47:05;4.68;;;1.40;;
24897;SDS011;12957;49.434;8.684;2023-03-13T05:49:30;2.47;;;1.42;;
24897;SDS011;12957;49.434;8.684;2023-03-13T05:51:56;2.30;;;1.30;;
24897;SDS011;12957;49.434;8.684;2023-03-13T05:54:21;1.80;;;1.30;;
24897;SDS011;12957;49.434;8.684;2023-03-13T05:56:47;2.80;;;1.30;;
24897;SDS011;12957;49.434;8.684;2023-03-13T05:59:14;5.60;;;1.50;;
24897;SDS011;12957;49.434;8.684;2023-03-13T06:01:40;4.32;;;1.30;;
24897;SDS011;12957;49.434;8.684;2023-03-13T06:04:05;2.63;;;1.35;;
24897;SDS011;12957;49.434;8.684;2023-03-13T06:06:30;2.33;;;1.05;;
24897;SDS011;12957;49.434;8.684;2023-03-13T06:08:56;2.65;;;1.05;;
24897;SDS011;12957;49.434;8.684;2023-03-13T06:11:21;2.05;;;1.17;;
24897;SDS011;12957;49.434;8.684;2023-03-13T06:13:47;3.10;;;1.30;;
24897;SDS011;12957;49.434;8.684;2023-03-13T06:16:12;3.15;;;1.00;;
24897;SDS011;12957;49.434;8.684;2023-03-13T06:18:38;3.83;;;1.33;;
24897;SDS011;12957;49.434;8.684;2023-03-13T06:21:03;1.60;;;1.13;;
24897;SDS011;12957;49.434;8.684;2023-03-13T06:23:29;6.93;;;1.13;;
24897;SDS011;12957;49.434;8.684;2023-03-13T06:25:54;2.40;;;1.58;;
24897;SDS011;12957;49.434;8.684;2023-03-13T06:28:20;1.25;;;1.10;;
24897;SDS011;12957;49.434;8.684;2023-03-13T06:30:45;2.15;;;1.20;;
24897;SDS011;12957;49.434;8.684;2023-03-13T06:33:11;2.85;;;1.38;;
24897;SDS011;12957;49.434;8.684;2023-03-13T06:35:40;3.97;;;1.42;;
24897;SDS011;12957;49.434;8.684;2023-03-13T06:38:06;2.67;;;1.20;;
24897;SDS011;12957;49.434;8.684;2023-03-13T06:40:32;3.83;;;1.55;;
24897;SDS011;12957;49.434;8.684;2023-03-13T06:42:58;2.45;;;1.45;;
24897;SDS011;12957;49.434;8.684;2023-03-13T06:45:23;1.40;;;1.30;;
24897;SDS011;12957;49.434;8.684;2023-03-13T06:47:49;1.10;;;1.10;;
24897;SDS011;12957;49.434;8.684;2023-03-13T06:50:15;2.90;;;1.23;;
24897;SDS011;12957;49.434;8.684;2023-03-13T06:52:41;2.75;;;1.13;;
24897;SDS011;12957;49.434;8.684;2023-03-13T06:55:06;1.35;;;1.25;;
24897;SDS011;12957;49.434;8.684;2023-03-13T06:57:33;1.83;;;1.20;;
24897;SDS011;12957;49.434;8.684;2023-03-13T06:59:58;2.42;;;1.08;;
24897;SDS011;12957;49.434;8.684;2023-03-13T07:02:23;1.13;;;1.08;;
24897;SDS011;12957;49.434;8.684;2023-03-13T07:04:49;3.60;;;1.35;;
24897;SDS011;12957;49.434;8.684;2023-03-13T07:07:15;1.80;;;1.20;;
24897;SDS011;12957;49.434;8.684;2023-03-13T07:09:40;1.00;;;1.00;;
24897;SDS011;12957;49.434;8.684;2023-03-13T07:12:06;6.40;;;1.20;;
24897;SDS011;12957;49.434;8.684;2023-03-13T07:14:31;1.92;;;1.30;;
24897;SDS011;12957;49.434;8.684;2023-03-13T07:16:57;4.28;;;1.00;;
24897;SDS011;12957;49.434;8.684;2023-03-13T07:19:23;1.15;;;1.10;;
24897;SDS011;12957;49.434;8.684;2023-03-13T07:21:49;1.35;;;1.08;;
24897;SDS011;12957;49.434;8.684;2023-03-13T07:24:16;1.40;;;1.30;;
24897;SDS011;12957;49.434;8.684;2023-03-13T07:26:41;2.75;;;1.50;;
24897;SDS011;12957;49.434;8.684;2023-03-13T07:29:07;1.27;;;1.17;;
24897;SDS011;12957;49.434;8.684;2023-03-13T07:31:32;1.20;;;1.10;;
24897;SDS011;12957;49.434;8.684;2023-03-13T07:33:59;1.58;;;1.10;;
24897;SDS011;12957;49.434;8.684;2023-03-13T07:36:25;3.65;;;1.10;;
24897;SDS011;12957;49.434;8.684;2023-03-13T07:38:50;2.95;;;1.30;;
24897;SDS011;12957;49.434;8.684;2023-03-13T07:41:17;3.42;;;1.48;;
24897;SDS011;12957;49.434;8.684;2023-03-13T07:43:43;2.38;;;0.95;;
24897;SDS011;12957;49.434;8.684;2023-03-13T07:46:10;1.10;;;1.10;;
24897;SDS011;12957;49.434;8.684;2023-03-13T07:48:37;1.10;;;1.00;;
24897;SDS011;12957;49.434;8.684;2023-03-13T07:51:04;1.35;;;1.25;;
24897;SDS011;12957;49.434;8.684;2023-03-13T07:53:31;1.30;;;1.00;;
24897;SDS011;12957;49.434;8.684;2023-03-13T07:56:04;1.17;;;1.08;;
24897;SDS011;12957;49.434;8.684;2023-03-13T07:58:35;1.00;;;1.00;;
24897;SDS011;12957;49.434;8.684;2023-03-13T08:01:07;1.30;;;1.20;;
24897;SDS011;12957;49.434;8.684;2023-03-13T08:03:36;2.78;;;1.10;;
24897;SDS011;12957;49.434;8.684;2023-03-13T08:06:03;1.23;;;1.13;;
24897;SDS011;12957;49.434;8.684;2023-03-13T08:08:30;1.30;;;1.17;;
24897;SDS011;12957;49.434;8.684;2023-03-13T08:11:03;1.20;;;1.15;;
24897;SDS011;12957;49.434;8.684;2023-03-13T08:13:32;2.25;;;1.20;;
24897;SDS011;12957;49.434;8.684;2023-03-13T08:16:05;3.47;;;1.30;;
24897;SDS011;12957;49.434;8.684;2023-03-13T08:18:31;1.85;;;1.20;;
24897;SDS011;12957;49.434;8.684;2023-03-13T08:21:00;1.52;;;1.17;;
24897;SDS011;12957;49.434;8.684;2023-03-13T08:23:26;2.05;;;1.23;;
24897;SDS011;12957;49.434;8.684;2023-03-13T08:25:52;1.67;;;1.20;;
24897;SDS011;12957;49.434;8.684;2023-03-13T08:28:18;1.35;;;1.15;;
24897;SDS011;12957;49.434;8.684;2023-03-13T08:30:43;3.33;;;1.23;;
24897;SDS011;12957;49.434;8.684;2023-03-13T08:33:08;1.38;;;1.20;;
24897;SDS011;12957;49.434;8.684;2023-03-13T08:35:34;1.23;;;1.08;;
24897;SDS011;12957;49.434;8.684;2023-03-13T08:38:00;1.10;;;1.10;;
24897;SDS011;12957;49.434;8.684;2023-03-13T08:40:26;2.60;;;1.25;;
24897;SDS011;12957;49.434;8.684;2023-03-13T08:42:52;1.10;;;1.00;;
24897;SDS011;12957;49.434;8.684;2023-03-13T08:45:18;1.20;;;1.10;;
24897;SDS011;12957;49.434;8.684;2023-03-13T08:47:43;1.42;;;1.20;;
24897;SDS011;12957;49.434;8.684;2023-03-13T08:50:09;3.03;;;1.20;;
24897;SDS011;12957;49.434;8.684;2023-03-13T08:52:35;2.30;;;1.20;;
24897;SDS011;12957;49.434;8.684;2023-03-13T08:55:00;2.25;;;1.17;;
24897;SDS011;12957;49.434;8.684;2023-03-13T08:57:25;5.30;;;1.30;;
24897;SDS011;12957;49.434;8.684;2023-03-13T08:59:51;1.35;;;1.08;;
24897;SDS011;12957;49.434;8.684;2023-03-13T09:02:16;1.20;;;1.20;;
24897;SDS011;12957;49.434;8.684;2023-03-13T09:04:45;1.75;;;1.08;;
24897;SDS011;12957;49.434;8.684;2023-03-13T09:07:11;2.92;;;1.15;;
24897;SDS011;12957;49.434;8.684;2023-03-13T09:09:37;5.63;;;1.40;;
24897;SDS011;12957;49.434;8.684;2023-03-13T09:12:02;1.60;;;1.20;;
24897;SDS011;12957;49.434;8.684;2023-03-13T09:14:28;2.60;;;1.35;;
24897;SDS011;12957;49.434;8.684;2023-03-13T09:16:54;1.35;;;1.25;;
24897;SDS011;12957;49.434;8.684;2023-03-13T09:19:20;1.30;;;1.20;;
24897;SDS011;12957;49.434;8.684;2023-03-13T09:21:45;7.10;;;1.90;;
24897;SDS011;12957;49.434;8.684;2023-03-13T09:24:13;4.35;;;2.10;;
24897;SDS011;12957;49.434;8.684;2023-03-13T09:26:39;6.35;;;1.58;;
24897;SDS011;12957;49.434;8.684;2023-03-13T09:29:04;2.97;;;1.30;;
24897;SDS011;12957;49.434;8.684;2023-03-13T09:31:30;1.92;;;1.60;;
24897;SDS011;12957;49.434;8.684;2023-03-13T09:33:56;1.45;;;1.23;;
24897;SDS011;12957;49.434;8.684;2023-03-13T09:36:22;1.05;;;1.02;;
24897;SDS011;12957;49.434;8.684;2023-03-13T09:38:48;1.42;;;1.20;;
24897;SDS011;12957;49.434;8.684;2023-03-13T09:49:28;1.20;;;1.20;;
24897;SDS011;12957;49.434;8.684;2023-03-13T09:54:36;1.60;;;1.20;;
24897;SDS011;12957;49.434;8.684;2023-03-13T10:02:33;1.15;;;1.15;;
24897;SDS011;12957;49.434;8.684;2023-03-13T10:07:33;1.45;;;1.30;;
24897;SDS011;12957;49.434;8.684;2023-03-13T10:10:00;4.18;;;1.10;;
24897;SDS011;12957;49.434;8.684;2023-03-13T10:12:30;3.13;;;1.20;;
24897;SDS011;12957;49.434;8.684;2023-03-13T10:15:14;3.10;;;1.20;;
24897;SDS011;12957;49.434;8.684;2023-03-13T10:18:05;2.60;;;1.20;;
24897;SDS011;12957;49.434;8.684;2023-03-13T10:20:36;7.10;;;2.17;;
24897;SDS011;12957;49.434;8.684;2023-03-13T10:23:19;1.60;;;1.50;;
24897;SDS011;12957;49.434;8.684;2023-03-13T10:25:47;2.65;;;1.42;;
24897;SDS011;12957;49.434;8.684;2023-03-13T10:28:13;2.88;;;1.30;;
24897;SDS011;12957;49.434;8.684;2023-03-13T10:30:47;3.13;;;1.50;;
24897;SDS011;12957;49.434;8.684;2023-03-13T10:33:23;1.95;;;1.60;;
24897;SDS011;12957;49.434;8.684;2023-03-13T10:38:45;2.22;;;1.67;;
24897;SDS011;12957;49.434;8.684;2023-03-13T10:41:22;2.13;;;1.60;;
24897;SDS011;12957;49.434;8.684;2023-03-13T10:43:51;3.50;;;1.48;;
24897;SDS011;12957;49.434;8.684;2023-03-13T10:46:25;1.88;;;1.48;;
24897;SDS011;12957;49.434;8.684;2023-03-13T10:48:53;2.08;;;1.45;;
24897;SDS011;12957;49.434;8.684;2023-03-13T10:51:23;2.47;;;1.27;;
24897;SDS011;12957;49.434;8.684;2023-03-13T10:53:49;1.73;;;1.40;;
24897;SDS011;12957;49.434;8.684;2023-03-13T10:56:19;1.83;;;1.20;;
24897;SDS011;12957;49.434;8.684;2023-03-13T10:58:53;2.05;;;1.55;;
24897;SDS011;12957;49.434;8.684;2023-03-13T11:03:55;1.13;;;1.13;;
24897;SDS011;12957;49.434;8.684;2023-03-13T11:09:04;1.67;;;1.20;;
24897;SDS011;12957;49.434;8.684;2023-03-13T11:14:24;3.40;;;1.35;;
24897;SDS011;12957;49.434;8.684;2023-03-13T11:16:50;2.40;;;1.30;;
24897;SDS011;12957;49.434;8.684;2023-03-13T11:22:18;4.13;;;2.08;;
24897;SDS011;12957;49.434;8.684;2023-03-13T11:28:01;5.30;;;1.88;;
24897;SDS011;12957;49.434;8.684;2023-03-13T11:35:49;3.90;;;1.55;;
24897;SDS011;12957;49.434;8.684;2023-03-13T11:38:38;5.05;;;1.65;;
24897;SDS011;12957;49.434;8.684;2023-03-13T11:46:24;2.38;;;1.50;;
24897;SDS011;12957;49.434;8.684;2023-03-13T11:49:14;2.65;;;1.60;;
24897;SDS011;12957;49.434;8.684;2023-03-13T11:51:49;4.93;;;1.20;;
24897;SDS011;12957;49.434;8.684;2023-03-13T11:54:29;2.65;;;1.60;;
24897;SDS011;12957;49.434;8.684;2023-03-13T12:05:20;1.80;;;1.30;;
24897;SDS011;12957;49.434;8.684;2023-03-13T12:10:18;2.67;;;1.67;;
24897;SDS011;12957;49.434;8.684;2023-03-13T12:13:06;2.03;;;1.60;;
24897;SDS011;12957;49.434;8.684;2023-03-13T12:15:40;6.00;;;1.20;;
24897;SDS011;12957;49.434;8.684;2023-03-13T12:21:45;4.43;;;1.45;;
24897;SDS011;12957;49.434;8.684;2023-03-13T12:24:28;1.50;;;1.40;;
24897;SDS011;12957;49.434;8.684;2023-03-13T12:27:02;6.10;;;2.20;;
24897;SDS011;12957;49.434;8.684;2023-03-13T12:34:45;1.83;;;1.45;;
24897;SDS011;12957;49.434;8.684;2023-03-13T12:37:38;1.35;;;1.30;;
24897;SDS011;12957;49.434;8.684;2023-03-13T12:42:54;1.60;;;1.50;;
24897;SDS011;12957;49.434;8.684;2023-03-13T12:45:23;4.03;;;1.40;;
24897;SDS011;12957;49.434;8.684;2023-03-13T12:50:52;4.07;;;1.65;;
24897;SDS011;12957;49.434;8.684;2023-03-13T13:06:16;2.00;;;1.40;;
24897;SDS011;12957;49.434;8.684;2023-03-13T13:08:43;4.63;;;1.50;;
24897;SDS011;12957;49.434;8.684;2023-03-13T13:16:50;2.33;;;1.30;;
24897;SDS011;12957;49.434;8.684;2023-03-13T13:29:59;1.60;;;1.35;;
24897;SDS011;12957;49.434;8.684;2023-03-13T13:32:29;1.95;;;1.38;;
24897;SDS011;12957;49.434;8.684;2023-03-13T13:37:31;1.40;;;1.30;;
24897;SDS011;12957;49.434;8.684;2023-03-13T13:42:49;2.63;;;1.77;;
24897;SDS011;12957;49.434;8.684;2023-03-13T13:45:23;6.72;;;1.55;;
24897;SDS011;12957;49.434;8.684;2023-03-13T13:48:14;6.45;;;1.80;;
24897;SDS011;12957;49.434;8.684;2023-03-13T13:53:41;2.30;;;1.48;;
24897;SDS011;12957;49.434;8.684;2023-03-13T13:59:38;1.77;;;1.20;;
24897;SDS011;12957;49.434;8.684;2023-03-13T14:02:52;1.60;;;1.50;;
24897;SDS011;12957;49.434;8.684;2023-03-13T14:07:16;2.97;;;1.52;;
24897;SDS011;12957;49.434;8.684;2023-03-13T14:12:32;1.95;;;1.30;;
24897;SDS011;12957;49.434;8.684;2023-03-13T14:15:05;3.55;;;1.30;;
24897;SDS011;12957;49.434;8.684;2023-03-13T14:17:51;5.20;;;1.35;;
24897;SDS011;12957;49.434;8.684;2023-03-13T14:20:22;1.33;;;1.23;;
24897;SDS011;12957;49.434;8.684;2023-03-13T14:23:11;3.75;;;3.30;;
24897;SDS011;12957;49.434;8.684;2023-03-13T14:25:41;4.47;;;1.83;;
24897;SDS011;12957;49.434;8.684;2023-03-13T14:28:17;4.72;;;1.67;;
24897;SDS011;12957;49.434;8.684;2023-03-13T14:30:47;1.50;;;1.40;;
24897;SDS011;12957;49.434;8.684;2023-03-13T14:33:13;1.65;;;1.50;;
24897;SDS011;12957;49.434;8.684;2023-03-13T14:35:39;1.65;;;1.55;;
24897;SDS011;12957;49.434;8.684;2023-03-13T14:38:05;1.73;;;1.38;;
24897;SDS011;12957;49.434;8.684;2023-03-13T14:40:32;2.88;;;1.40;;
24897;SDS011;12957;49.434;8.684;2023-03-13T14:42:59;3.05;;;1.27;;
24897;SDS011;12957;49.434;8.684;2023-03-13T14:45:27;5.45;;;1.35;;
24897;SDS011;12957;49.434;8.684;2023-03-13T14:47:53;4.40;;;1.40;;
24897;SDS011;12957;49.434;8.684;2023-03-13T14:50:20;3.28;;;1.17;;
24897;SDS011;12957;49.434;8.684;2023-03-13T14:52:54;5.07;;;1.40;;
24897;SDS011;12957;49.434;8.684;2023-03-13T14:55:25;3.05;;;1.48;;
24897;SDS011;12957;49.434;8.684;2023-03-13T15:00:38;3.92;;;1.85;;
24897;SDS011;12957;49.434;8.684;2023-03-13T15:05:43;5.68;;;1.65;;
24897;SDS011;12957;49.434;8.684;2023-03-13T15:08:27;3.75;;;1.50;;
24897;SDS011;12957;49.434;8.684;2023-03-13T15:10:54;3.53;;;1.58;;
24897;SDS011;12957;49.434;8.684;2023-03-13T15:15:52;1.70;;;1.45;;
24897;SDS011;12957;49.434;8.684;2023-03-13T15:18:27;3.30;;;1.40;;
24897;SDS011;12957;49.434;8.684;2023-03-13T15:23:37;4.20;;;1.50;;
24897;SDS011;12957;49.434;8.684;2023-03-13T15:26:03;1.45;;;1.20;;
24897;SDS011;12957;49.434;8.684;2023-03-13T15:28:29;2.70;;;1.23;;
24897;SDS011;12957;49.434;8.684;2023-03-13T15:30:55;3.08;;;1.33;;
24897;SDS011;12957;49.434;8.684;2023-03-13T15:33:21;3.50;;;1.38;;
24897;SDS011;12957;49.434;8.684;2023-03-13T15:35:48;3.35;;;1.40;;
24897;SDS011;12957;49.434;8.684;2023-03-13T15:38:15;4.68;;;1.20;;
24897;SDS011;12957;49.434;8.684;2023-03-13T15:40:42;2.58;;;1.20;;
24897;SDS011;12957;49.434;8.684;2023-03-13T15:43:08;1.80;;;1.38;;
24897;SDS011;12957;49.434;8.684;2023-03-13T15:45:37;2.13;;;1.50;;
24897;SDS011;12957;49.434;8.684;2023-03-13T15:48:10;2.55;;;1.33;;
24897;SDS011;12957;49.434;8.684;2023-03-13T15:50:38;2.75;;;1.17;;
24897;SDS011;12957;49.434;8.684;2023-03-13T15:53:09;1.23;;;0.90;;
24897;SDS011;12957;49.434;8.684;2023-03-13T15:55:48;2.85;;;1.30;;
24897;SDS011;12957;49.434;8.684;2023-03-13T15:58:14;1.70;;;1.20;;
24897;SDS011;12957;49.434;8.684;2023-03-13T16:00:40;1.58;;;1.27;;
24897;SDS011;12957;49.434;8.684;2023-03-13T16:03:08;2.13;;;1.10;;
24897;SDS011;12957;49.434;8.684;2023-03-13T16:05:39;2.40;;;1.27;;
24897;SDS011;12957;49.434;8.684;2023-03-13T16:08:05;3.72;;;1.23;;
24897;SDS011;12957;49.434;8.684;2023-03-13T16:10:30;1.38;;;1.30;;
24897;SDS011;12957;49.434;8.684;2023-03-13T16:12:56;3.53;;;1.20;;
24897;SDS011;12957;49.434;8.684;2023-03-13T16:15:22;2.17;;;1.30;;
24897;SDS011;12957;49.434;8.684;2023-03-13T16:17:47;2.90;;;1.48;;
24897;SDS011;12957;49.434;8.684;2023-03-13T16:20:13;5.72;;;1.80;;
24897;SDS011;12957;49.434;8.684;2023-03-13T16:22:41;4.05;;;1.20;;
24897;SDS011;12957;49.434;8.684;2023-03-13T16:25:06;4.90;;;0.93;;
24897;SDS011;12957;49.434;8.684;2023-03-13T16:27:33;2.28;;;0.90;;
24897;SDS011;12957;49.434;8.684;2023-03-13T16:29:58;4.95;;;1.05;;
24897;SDS011;12957;49.434;8.684;2023-03-13T16:32:25;0.98;;;0.98;;
24897;SDS011;12957;49.434;8.684;2023-03-13T16:34:51;3.22;;;0.90;;
24897;SDS011;12957;49.434;8.684;2023-03-13T16:37:18;1.05;;;0.80;;
24897;SDS011;12957;49.434;8.684;2023-03-13T16:39:45;1.77;;;1.00;;
24897;SDS011;12957;49.434;8.684;2023-03-13T16:42:13;4.85;;;0.98;;
24897;SDS011;12957;49.434;8.684;2023-03-13T16:44:38;1.35;;;1.00;;
24897;SDS011;12957;49.434;8.684;2023-03-13T16:47:10;1.10;;;1.10;;
24897;SDS011;12957;49.434;8.684;2023-03-13T16:49:40;1.40;;;0.90;;
24897;SDS011;12957;49.434;8.684;2023-03-13T16:52:07;4.10;;;0.77;;
24897;SDS011;12957;49.434;8.684;2023-03-13T16:54:37;0.80;;;0.80;;
24897;SDS011;12957;49.434;8.684;2023-03-13T16:57:03;0.77;;;0.77;;
24897;SDS011;12957;49.434;8.684;2023-03-13T16:59:33;0.80;;;0.80;;
24897;SDS011;12957;49.434;8.684;2023-03-13T17:01:58;2.38;;;1.00;;
24897;SDS011;12957;49.434;8.684;2023-03-13T17:04:24;0.95;;;0.95;;
24897;SDS011;12957;49.434;8.684;2023-03-13T17:06:49;3.63;;;0.77;;